Flight Track Log - Related Links

Times and Time Zones

All times are in EDT time to prevent confusion due to time zone crossing. See the USC105 flight status page for this flight to view local times or setup timezone preferences in your user account.

Time Position Orientation Groundspeed Altitude Reporting Facility
EDT Latitude Longitude Course Direction KTS MPH feet Rate Location/Type
Wed 09:56:26 PM 39.8058 -82.9394 229° Southwest 111 128 1,000  Level Indianapolis Center
Wed 09:57:32 PM 39.7825 -82.9747 229° Southwest 114 131 2,300 1,081 Climbing Indianapolis Center
Wed 09:58:17 PM 39.7703 -82.9933 229° Southwest 116 133 3,000 1,019 Climbing Indianapolis Center
Wed 09:59:18 PM 39.7861 -83.0069 327° Northwest 130 150 4,100 1,082 Climbing Indianapolis Center
Wed 10:00:19 PM 39.8181 -82.9789 34° Northeast 135 155 5,200 1,082 Climbing Indianapolis Center
Wed 10:01:20 PM 39.8481 -82.9519 35° Northeast 132 152 6,300 885 Climbing Indianapolis Center
Wed 10:02:21 PM 39.8817 -82.9303 26° Northeast 134 154 7,000 341 Climbing Indianapolis Center
Wed 10:03:23 PM 39.9231 -82.9039 26° Northeast 165 190 7,000  Level Indianapolis Center
Wed 10:04:24 PM 39.9644 -82.8708 31° Northeast 172 198 7,000  Level Indianapolis Center
Wed 10:05:25 PM 40.0061 -82.8386 31° Northeast 172 198 7,000  Level Indianapolis Center
Wed 10:06:26 PM 40.0494 -82.8064 30° Northeast 176 203 7,000  Level Indianapolis Center
Wed 10:07:27 PM 40.0936 -82.7739 29° Northeast 180 207 7,000  Level Indianapolis Center
Wed 10:08:28 PM 40.1372 -82.7403 31° Northeast 180 207 7,000  Level Indianapolis Center
Wed 10:08:45 PM 40.1506 -82.7308 28° Northeast 178 205 7,000  Level Indianapolis Center
Wed 10:09:40 PM 40.1903 -82.6997 31° Northeast 175 201 7,000  Level Indianapolis Center
Wed 10:10:31 PM 40.2222 -82.6761 29° Northeast 177 204 7,000  Level Indianapolis Center
Wed 10:10:47 PM 40.2364 -82.6667 27° Northeast 175 201 7,000  Level Indianapolis Center
Wed 10:11:32 PM 40.2692 -82.6414 30° Northeast 174 200 7,000  Level Indianapolis Center
Wed 10:12:33 PM 40.3128 -82.6083 30° Northeast 179 206 7,000  Level Indianapolis Center
Wed 10:13:34 PM 40.3547 -82.5767 30° Northeast 174 200 7,000  Level Indianapolis Center
Wed 10:14:35 PM 40.3972 -82.5433 31° Northeast 176 203 7,000  Level Indianapolis Center
Wed 10:15:36 PM 40.4389 -82.5103 31° Northeast 174 200 7,000  Level Indianapolis Center
Wed 10:16:37 PM 40.4825 -82.4783 29° Northeast 176 203 7,000  Level Indianapolis Center
Wed 10:17:38 PM 40.5264 -82.4453 30° Northeast 180 207 7,000  Level Indianapolis Center
Wed 10:18:39 PM 40.5697 -82.4128 30° Northeast 178 205 7,000  Level Indianapolis Center
Wed 10:19:41 PM 40.6114 -82.3786 32° Northeast 175 201 7,000  Level Indianapolis Center
Wed 10:20:42 PM 40.6539 -82.3464 30° Northeast 175 201 7,000  Level Indianapolis Center
Wed 10:21:43 PM 40.6964 -82.3153 29° Northeast 173 199 7,000  Level Indianapolis Center
Wed 10:22:44 PM 40.7381 -82.2831 30° Northeast 173 199 7,000 75 Level Indianapolis Center
Wed 10:23:03 PM 40.7528 -82.2769 17° North 171 197 7,100 76 Climbing Cleveland Center
Wed 10:24:03 PM 40.7950 -82.2453 30° Northeast 173 199 7,100  Level Cleveland Center
Wed 10:25:04 PM 40.8372 -82.2078 34° Northeast 172 198 7,100  Level Cleveland Center
Wed 10:26:11 PM 40.8817 -82.1731 31° Northeast 171 197 7,100  Level Cleveland Center
Wed 10:27:11 PM 40.9236 -82.1411 30° Northeast 171 197 7,100  Level Cleveland Center
Wed 10:28:18 PM 40.9722 -82.1067 28° Northeast 172 198 7,100  Level Cleveland Center
Wed 10:29:13 PM 41.0081 -82.0772 32° Northeast 174 200 7,100  Level Cleveland Center
Wed 10:30:19 PM 41.0542 -82.0453 28° Northeast 168 193 7,100  Level Cleveland Center
Wed 10:31:26 PM 41.0964 -82.0103 32° Northeast 170 196 7,100  Level Cleveland Center
Wed 10:32:27 PM 41.1364 -81.9753 33° Northeast 167 192 7,100  Level Cleveland Center
Wed 10:33:27 PM 41.1806 -81.9461 26° Northeast 168 193 7,100 -52 Level Cleveland Center
Wed 10:34:22 PM 41.2142 -81.9192 31° Northeast 166 191 7,000 -470 Descending Cleveland Center
Wed 10:35:22 PM 41.2606 -81.8842 30° Northeast 179 206 6,200 -783 Descending Cleveland Center
Wed 10:36:17 PM 41.2961 -81.8544 32° Northeast 181 208 5,500 -826 Descending Cleveland Center
Wed 10:37:11 PM 41.3342 -81.8275 28° Northeast 177 204 4,700 -881 Descending Cleveland Center
Wed 10:38:06 PM 41.3781 -81.8089 18° North 175 201 3,900 -879 Descending Cleveland Center
Wed 10:39:07 PM 41.4242 -81.7933 14° North 172 198 3,000 -887 Descending Cleveland Center
Wed 10:40:01 PM 41.4681 -81.7858 North 161 185 2,200 -744 Descending Cleveland Center
Wed 10:41:08 PM 41.4956 -81.7364 53° Northeast 162 186 1,500 -627 Descending Cleveland Center
Wed 10:43:00 PM 41.5175 -81.6833 27° Northeast  Level Estimated
Wed 10:50:00 PM 41.5175 -81.6833 27° Northeast  Level Estimated

Login

Don't have an account? Register now (free) for customized features, flight alerts, and more!